sensor_id;sensor_type;location;lat;lon;timestamp;temperature;humidity
30250;DHT22;17064;47.974;13.826;2022-12-29T04:02:28;3.40;99.90
30250;DHT22;17064;47.974;13.826;2022-12-29T04:07:29;3.40;99.90
30250;DHT22;17064;47.974;13.826;2022-12-29T04:12:30;3.30;99.90
30250;DHT22;17064;47.974;13.826;2022-12-29T04:17:30;3.20;99.90
30250;DHT22;17064;47.974;13.826;2022-12-29T04:22:31;3.20;99.90
30250;DHT22;17064;47.974;13.826;2022-12-29T04:27:32;3.20;99.90
30250;DHT22;17064;47.974;13.826;2022-12-29T04:32:32;3.10;99.90
30250;DHT22;17064;47.974;13.826;2022-12-29T04:37:33;3.10;99.90
30250;DHT22;17064;47.974;13.826;2022-12-29T04:42:34;3.00;99.90
30250;DHT22;17064;47.974;13.826;2022-12-29T04:47:35;3.00;99.90
30250;DHT22;17064;47.974;13.826;2022-12-29T04:52:36;2.90;99.90
30250;DHT22;17064;47.974;13.826;2022-12-29T04:57:36;3.00;99.90
30250;DHT22;17064;47.974;13.826;2022-12-29T05:02:37;3.00;99.90
30250;DHT22;17064;47.974;13.826;2022-12-29T05:07:38;3.00;99.90
30250;DHT22;17064;47.974;13.826;2022-12-29T05:12:39;2.90;99.90
30250;DHT22;17064;47.974;13.826;2022-12-29T05:17:40;2.80;99.90
30250;DHT22;17064;47.974;13.826;2022-12-29T05:22:41;2.80;99.90
30250;DHT22;17064;47.974;13.826;2022-12-29T05:27:41;2.90;99.90
30250;DHT22;17064;47.974;13.826;2022-12-29T05:32:42;2.90;99.90
30250;DHT22;17064;47.974;13.826;2022-12-29T05:37:43;2.80;99.90
30250;DHT22;17064;47.974;13.826;2022-12-29T05:42:44;2.80;99.90
30250;DHT22;17064;47.974;13.826;2022-12-29T05:47:44;2.90;99.90
30250;DHT22;17064;47.974;13.826;2022-12-29T05:52:45;3.00;99.90
30250;DHT22;17064;47.974;13.826;2022-12-29T05:57:46;3.00;99.90
30250;DHT22;17064;47.974;13.826;2022-12-29T06:02:47;3.10;99.90
30250;DHT22;17064;47.974;13.826;2022-12-29T06:07:47;3.20;99.90
30250;DHT22;17064;47.974;13.826;2022-12-29T06:12:48;3.20;99.90
30250;DHT22;17064;47.974;13.826;2022-12-29T06:17:49;3.20;99.90
30250;DHT22;17064;47.974;13.826;2022-12-29T06:22:50;3.20;99.90
30250;DHT22;17064;47.974;13.826;2022-12-29T06:27:50;3.10;99.90
30250;DHT22;17064;47.974;13.826;2022-12-29T06:32:51;2.90;99.90
30250;DHT22;17064;47.974;13.826;2022-12-29T06:37:52;2.80;99.90
30250;DHT22;17064;47.974;13.826;2022-12-29T06:42:52;2.70;99.90
30250;DHT22;17064;47.974;13.826;2022-12-29T06:47:53;2.90;99.90
30250;DHT22;17064;47.974;13.826;2022-12-29T06:52:54;3.00;99.90
30250;DHT22;17064;47.974;13.826;2022-12-29T06:57:56;2.80;99.90
30250;DHT22;17064;47.974;13.826;2022-12-29T07:02:57;2.70;99.90
30250;DHT22;17064;47.974;13.826;2022-12-29T07:07:58;2.60;99.90
30250;DHT22;17064;47.974;13.826;2022-12-29T07:12:59;2.60;99.90
30250;DHT22;17064;47.974;13.826;2022-12-29T07:18:00;2.40;99.90
30250;DHT22;17064;47.974;13.826;2022-12-29T07:23:01;2.40;99.90
30250;DHT22;17064;47.974;13.826;2022-12-29T07:28:03;2.50;99.90
30250;DHT22;17064;47.974;13.826;2022-12-29T07:33:04;2.90;99.90
30250;DHT22;17064;47.974;13.826;2022-12-29T07:38:05;3.30;99.90
30250;DHT22;17064;47.974;13.826;2022-12-29T07:43:05;3.80;99.90
30250;DHT22;17064;47.974;13.826;2022-12-29T07:48:06;4.10;99.90
30250;DHT22;17064;47.974;13.826;2022-12-29T07:53:10;4.40;99.90
30250;DHT22;17064;47.974;13.826;2022-12-29T07:58:11;4.80;99.90
30250;DHT22;17064;47.974;13.826;2022-12-29T08:03:11;5.30;99.90
30250;DHT22;17064;47.974;13.826;2022-12-29T08:08:12;5.80;99.90
30250;DHT22;17064;47.974;13.826;2022-12-29T08:13:13;6.30;99.90
30250;DHT22;17064;47.974;13.826;2022-12-29T08:18:14;6.60;99.90
30250;DHT22;17064;47.974;13.826;2022-12-29T08:23:14;6.70;99.90
30250;DHT22;17064;47.974;13.826;2022-12-29T08:28:15;6.70;99.90
30250;DHT22;17064;47.974;13.826;2022-12-29T08:33:16;6.70;99.90
30250;DHT22;17064;47.974;13.826;2022-12-29T08:38:17;6.60;99.90
30250;DHT22;17064;47.974;13.826;2022-12-29T08:43:18;6.50;99.90
30250;DHT22;17064;47.974;13.826;2022-12-29T08:48:19;6.50;99.90
30250;DHT22;17064;47.974;13.826;2022-12-29T08:53:22;6.50;99.90
30250;DHT22;17064;47.974;13.826;2022-12-29T08:58:23;6.40;99.90
30250;DHT22;17064;47.974;13.826;2022-12-29T09:03:24;6.30;99.90
30250;DHT22;17064;47.974;13.826;2022-12-29T09:08:28;6.30;99.90
30250;DHT22;17064;47.974;13.826;2022-12-29T09:13:29;6.20;99.90
30250;DHT22;17064;47.974;13.826;2022-12-29T09:18:30;6.20;99.90
30250;DHT22;17064;47.974;13.826;2022-12-29T09:23:32;6.20;99.90
30250;DHT22;17064;47.974;13.826;2022-12-29T09:28:34;6.30;99.90
30250;DHT22;17064;47.974;13.826;2022-12-29T09:33:35;6.50;99.90
30250;DHT22;17064;47.974;13.826;2022-12-29T09:38:36;6.40;99.90
30250;DHT22;17064;47.974;13.826;2022-12-29T09:49:29;6.30;99.90
30250;DHT22;17064;47.974;13.826;2022-12-29T09:54:52;6.40;99.90
30250;DHT22;17064;47.974;13.826;2022-12-29T09:59:59;6.50;99.90
30250;DHT22;17064;47.974;13.826;2022-12-29T10:05:02;6.70;99.90
30250;DHT22;17064;47.974;13.826;2022-12-29T10:25:46;7.10;99.90
30250;DHT22;17064;47.974;13.826;2022-12-29T10:30:48;7.20;99.90
30250;DHT22;17064;47.974;13.826;2022-12-29T10:35:51;7.20;99.90
30250;DHT22;17064;47.974;13.826;2022-12-29T10:46:33;6.80;99.90
30250;DHT22;17064;47.974;13.826;2022-12-29T10:51:38;6.80;99.90
30250;DHT22;17064;47.974;13.826;2022-12-29T10:56:49;6.80;99.90
30250;DHT22;17064;47.974;13.826;2022-12-29T11:02:00;6.90;99.90
30250;DHT22;17064;47.974;13.826;2022-12-29T11:07:05;7.10;99.90
30250;DHT22;17064;47.974;13.826;2022-12-29T11:12:36;7.20;99.90
30250;DHT22;17064;47.974;13.826;2022-12-29T11:17:51;7.40;99.90
30250;DHT22;17064;47.974;13.826;2022-12-29T11:22:53;7.60;99.90
30250;DHT22;17064;47.974;13.826;2022-12-29T11:28:02;7.90;99.90
30250;DHT22;17064;47.974;13.826;2022-12-29T11:33:04;8.10;99.90
30250;DHT22;17064;47.974;13.826;2022-12-29T11:38:05;8.40;99.90
30250;DHT22;17064;47.974;13.826;2022-12-29T11:43:06;8.60;99.90
30250;DHT22;17064;47.974;13.826;2022-12-29T11:48:18;8.80;99.90
30250;DHT22;17064;47.974;13.826;2022-12-29T11:53:25;8.90;99.90
30250;DHT22;17064;47.974;13.826;2022-12-29T11:58:35;8.90;99.90
30250;DHT22;17064;47.974;13.826;2022-12-29T12:03:43;8.90;99.90
30250;DHT22;17064;47.974;13.826;2022-12-29T12:08:55;8.90;99.90
30250;DHT22;17064;47.974;13.826;2022-12-29T12:24:23;9.20;99.90
30250;DHT22;17064;47.974;13.826;2022-12-29T12:29:50;9.20;99.90
30250;DHT22;17064;47.974;13.826;2022-12-29T12:34:51;9.20;99.90
30250;DHT22;17064;47.974;13.826;2022-12-29T12:50:35;10.40;99.90
30250;DHT22;17064;47.974;13.826;2022-12-29T12:55:56;10.90;99.90
30250;DHT22;17064;47.974;13.826;2022-12-29T13:06:37;11.00;99.90
30250;DHT22;17064;47.974;13.826;2022-12-29T13:32:56;9.00;99.90
30250;DHT22;17064;47.974;13.826;2022-12-29T13:38:04;9.30;99.90
30250;DHT22;17064;47.974;13.826;2022-12-29T13:43:09;9.90;99.90
30250;DHT22;17064;47.974;13.826;2022-12-29T13:48:19;10.70;99.90
30250;DHT22;17064;47.974;13.826;2022-12-29T14:04:27;10.20;99.90
30250;DHT22;17064;47.974;13.826;2022-12-29T14:09:32;9.40;99.90
30250;DHT22;17064;47.974;13.826;2022-12-29T14:14:37;8.80;99.90
30250;DHT22;17064;47.974;13.826;2022-12-29T14:19:42;8.30;99.90
30250;DHT22;17064;47.974;13.826;2022-12-29T14:24:45;7.90;99.90
30250;DHT22;17064;47.974;13.826;2022-12-29T14:29:49;7.60;99.90
30250;DHT22;17064;47.974;13.826;2022-12-29T14:34:50;7.40;99.90
30250;DHT22;17064;47.974;13.826;2022-12-29T14:40:06;7.10;99.90
30250;DHT22;17064;47.974;13.826;2022-12-29T14:50:43;6.80;99.90
30250;DHT22;17064;47.974;13.826;2022-12-29T14:55:47;6.70;99.90
30250;DHT22;17064;47.974;13.826;2022-12-29T15:00:50;6.60;99.90
30250;DHT22;17064;47.974;13.826;2022-12-29T15:06:08;6.40;99.90
30250;DHT22;17064;47.974;13.826;2022-12-29T15:11:15;6.30;99.90
30250;DHT22;17064;47.974;13.826;2022-12-29T15:16:33;6.20;99.90
30250;DHT22;17064;47.974;13.826;2022-12-29T15:21:42;6.10;99.90
30250;DHT22;17064;47.974;13.826;2022-12-29T15:26:49;5.90;99.90
30250;DHT22;17064;47.974;13.826;2022-12-29T15:31:52;5.80;99.90
30250;DHT22;17064;47.974;13.826;2022-12-29T15:36:52;5.60;99.90
30250;DHT22;17064;47.974;13.826;2022-12-29T15:47:36;5.30;99.90
30250;DHT22;17064;47.974;13.826;2022-12-29T15:52:39;5.20;99.90
30250;DHT22;17064;47.974;13.826;2022-12-29T15:57:42;5.00;99.90
30250;DHT22;17064;47.974;13.826;2022-12-29T16:02:43;4.80;99.90
30250;DHT22;17064;47.974;13.826;2022-12-29T16:07:58;4.60;99.90
30250;DHT22;17064;47.974;13.826;2022-12-29T16:13:35;4.40;99.90
30250;DHT22;17064;47.974;13.826;2022-12-29T16:18:36;4.10;99.90
30250;DHT22;17064;47.974;13.826;2022-12-29T16:23:37;4.00;99.90
30250;DHT22;17064;47.974;13.826;2022-12-29T16:28:41;3.90;99.90
30250;DHT22;17064;47.974;13.826;2022-12-29T16:33:48;3.80;99.90
30250;DHT22;17064;47.974;13.826;2022-12-29T16:38:49;3.60;99.90
30250;DHT22;17064;47.974;13.826;2022-12-29T16:49:19;3.40;99.90
30250;DHT22;17064;47.974;13.826;2022-12-29T16:54:23;3.20;99.90
30250;DHT22;17064;47.974;13.826;2022-12-29T16:59:32;3.00;99.90
30250;DHT22;17064;47.974;13.826;2022-12-29T17:04:33;2.90;99.90
30250;DHT22;17064;47.974;13.826;2022-12-29T17:09:34;2.80;99.90
30250;DHT22;17064;47.974;13.826;2022-12-29T17:14:48;2.60;99.90
30250;DHT22;17064;47.974;13.826;2022-12-29T17:19:56;2.50;99.90
30250;DHT22;17064;47.974;13.826;2022-12-29T17:25:00;2.40;99.90
30250;DHT22;17064;47.974;13.826;2022-12-29T17:30:23;2.30;99.90
30250;DHT22;17064;47.974;13.826;2022-12-29T17:35:24;2.30;99.90
30250;DHT22;17064;47.974;13.826;2022-12-29T17:40:29;2.20;99.90
30250;DHT22;17064;47.974;13.826;2022-12-29T17:45:32;2.10;99.90
30250;DHT22;17064;47.974;13.826;2022-12-29T17:50:33;2.10;99.90
30250;DHT22;17064;47.974;13.826;2022-12-29T17:55:33;2.10;99.90
30250;DHT22;17064;47.974;13.826;2022-12-29T18:00:34;2.00;99.90
30250;DHT22;17064;47.974;13.826;2022-12-29T18:05:35;2.00;99.90
30250;DHT22;17064;47.974;13.826;2022-12-29T18:10:35;2.00;99.90
30250;DHT22;17064;47.974;13.826;2022-12-29T18:15:36;1.90;99.90
30250;DHT22;17064;47.974;13.826;2022-12-29T18:20:38;1.90;99.90
30250;DHT22;17064;47.974;13.826;2022-12-29T18:25:43;1.90;99.90
30250;DHT22;17064;47.974;13.826;2022-12-29T18:30:45;2.00;99.90
30250;DHT22;17064;47.974;13.826;2022-12-29T18:40:53;2.00;99.90
30250;DHT22;17064;47.974;13.826;2022-12-29T18:45:54;2.20;99.90
30250;DHT22;17064;47.974;13.826;2022-12-29T18:50:55;2.30;99.90
30250;DHT22;17064;47.974;13.826;2022-12-29T18:55:57;2.30;99.90
30250;DHT22;17064;47.974;13.826;2022-12-29T19:00:58;2.40;99.90
30250;DHT22;17064;47.974;13.826;2022-12-29T19:05:58;2.30;99.90
30250;DHT22;17064;47.974;13.826;2022-12-29T19:11:00;2.40;99.90
30250;DHT22;17064;47.974;13.826;2022-12-29T19:16:01;2.50;99.90
30250;DHT22;17064;47.974;13.826;2022-12-29T19:21:01;2.50;99.90
30250;DHT22;17064;47.974;13.826;2022-12-29T19:26:02;2.50;99.90
30250;DHT22;17064;47.974;13.826;2022-12-29T19:31:03;2.50;99.90
30250;DHT22;17064;47.974;13.826;2022-12-29T19:36:04;2.60;99.90
30250;DHT22;17064;47.974;13.826;2022-12-29T19:41:06;2.60;99.90
30250;DHT22;17064;47.974;13.826;2022-12-29T19:46:12;2.50;99.90
30250;DHT22;17064;47.974;13.826;2022-12-29T19:51:15;2.50;99.90
30250;DHT22;17064;47.974;13.826;2022-12-29T19:56:16;2.60;99.90
30250;DHT22;17064;47.974;13.826;2022-12-29T20:01:20;2.70;99.90
30250;DHT22;17064;47.974;13.826;2022-12-29T20:06:21;2.60;99.90
30250;DHT22;17064;47.974;13.826;2022-12-29T20:11:22;2.60;99.90
30250;DHT22;17064;47.974;13.826;2022-12-29T20:16:23;2.60;99.90
30250;DHT22;17064;47.974;13.826;2022-12-29T20:21:24;2.50;99.90
30250;DHT22;17064;47.974;13.826;2022-12-29T20:26:28;2.50;99.90
30250;DHT22;17064;47.974;13.826;2022-12-29T20:31:32;2.50;99.90
30250;DHT22;17064;47.974;13.826;2022-12-29T20:36:36;2.50;99.90
30250;DHT22;17064;47.974;13.826;2022-12-29T20:41:37;2.60;99.90
30250;DHT22;17064;47.974;13.826;2022-12-29T20:46:38;2.70;99.90
30250;DHT22;17064;47.974;13.826;2022-12-29T20:51:39;2.70;99.90
30250;DHT22;17064;47.974;13.826;2022-12-29T20:56:42;2.60;99.90
30250;DHT22;17064;47.974;13.826;2022-12-29T21:01:43;2.60;99.90
30250;DHT22;17064;47.974;13.826;2022-12-29T21:06:44;2.60;99.90
30250;DHT22;17064;47.974;13.826;2022-12-29T21:11:46;2.70;99.90
30250;DHT22;17064;47.974;13.826;2022-12-29T21:16:47;2.90;99.90
30250;DHT22;17064;47.974;13.826;2022-12-29T21:21:47;3.00;99.90
30250;DHT22;17064;47.974;13.826;2022-12-29T21:26:48;3.10;99.90
30250;DHT22;17064;47.974;13.826;2022-12-29T21:31:49;3.20;99.90
30250;DHT22;17064;47.974;13.826;2022-12-29T21:36:50;3.20;99.90
30250;DHT22;17064;47.974;13.826;2022-12-29T21:41:51;3.20;99.90
30250;DHT22;17064;47.974;13.826;2022-12-29T21:46:51;3.30;99.90
30250;DHT22;17064;47.974;13.826;2022-12-29T21:51:52;3.20;99.90
30250;DHT22;17064;47.974;13.826;2022-12-29T21:56:53;3.30;99.90
30250;DHT22;17064;47.974;13.826;2022-12-29T22:01:54;3.30;99.90
30250;DHT22;17064;47.974;13.826;2022-12-29T22:07:13;3.30;99.90
30250;DHT22;17064;47.974;13.826;2022-12-29T22:12:33;3.20;99.90
30250;DHT22;17064;47.974;13.826;2022-12-29T22:17:53;3.20;99.90
30250;DHT22;17064;47.974;13.826;2022-12-29T22:22:54;3.30;99.90
30250;DHT22;17064;47.974;13.826;2022-12-29T22:27:55;3.30;99.90
30250;DHT22;17064;47.974;13.826;2022-12-29T22:32:56;3.30;99.90
30250;DHT22;17064;47.974;13.826;2022-12-29T22:37:58;3.30;99.90
30250;DHT22;17064;47.974;13.826;2022-12-29T22:42:59;3.20;99.90
30250;DHT22;17064;47.974;13.826;2022-12-29T22:47:59;3.30;99.90
30250;DHT22;17064;47.974;13.826;2022-12-29T22:53:00;3.20;99.90
30250;DHT22;17064;47.974;13.826;2022-12-29T22:58:01;3.10;99.90
30250;DHT22;17064;47.974;13.826;2022-12-29T23:03:02;3.10;99.90
30250;DHT22;17064;47.974;13.826;2022-12-29T23:08:03;3.10;99.90
30250;DHT22;17064;47.974;13.826;2022-12-29T23:13:04;3.20;99.90
30250;DHT22;17064;47.974;13.826;2022-12-29T23:18:05;3.20;99.90
30250;DHT22;17064;47.974;13.826;2022-12-29T23:23:06;3.20;99.90
30250;DHT22;17064;47.974;13.826;2022-12-29T23:28:07;3.10;99.90
30250;DHT22;17064;47.974;13.826;2022-12-29T23:33:08;3.10;99.90
30250;DHT22;17064;47.974;13.826;2022-12-29T23:38:09;3.00;99.90
30250;DHT22;17064;47.974;13.826;2022-12-29T23:43:09;3.00;99.90
30250;DHT22;17064;47.974;13.826;2022-12-29T23:48:10;2.90;99.90
30250;DHT22;17064;47.974;13.826;2022-12-29T23:53:11;2.80;99.90
30250;DHT22;17064;47.974;13.826;2022-12-29T23:58:12;2.80;99.90
